createdAt,value
2023-03-15T00:03:08.607Z,1000.749
2023-03-15T00:23:07.424Z,1001.095
2023-03-15T00:43:08.065Z,1001.115
2023-03-15T01:03:08.881Z,1001.28
2023-03-15T01:23:07.584Z,1001.431
2023-03-15T01:43:07.346Z,1001.662
2023-03-15T02:03:08.140Z,1001.837
2023-03-15T02:23:07.985Z,1001.795
2023-03-15T02:43:07.708Z,1001.896
2023-03-15T03:03:08.508Z,1002.163
2023-03-15T03:23:07.389Z,1002.467
2023-03-15T03:43:07.200Z,1002.724
2023-03-15T04:03:09.056Z,1003.031
2023-03-15T04:23:07.927Z,1003.245
2023-03-15T04:43:07.761Z,1003.628
2023-03-15T05:03:08.601Z,1003.813
2023-03-15T05:23:07.569Z,1004.043
2023-03-15T05:43:07.637Z,1004.207
2023-03-15T06:03:08.522Z,1004.65
2023-03-15T06:23:07.345Z,1005.257
2023-03-15T06:43:08.072Z,1005.562
2023-03-15T07:03:08.868Z,1005.723
2023-03-15T07:23:07.622Z,1006.004
2023-03-15T07:43:07.567Z,1006.304
2023-03-15T08:03:08.591Z,1006.528
2023-03-15T08:23:07.628Z,1006.815
2023-03-15T08:43:07.546Z,1007.214
2023-03-15T09:03:08.322Z,1007.564
2023-03-15T09:23:08.174Z,1007.771
2023-03-15T09:43:08.233Z,1007.986
2023-03-15T10:03:08.314Z,1008.046
2023-03-15T10:23:07.576Z,1008.132
2023-03-15T10:43:10.312Z,1008.028
2023-03-15T11:03:08.712Z,1008.059
2023-03-15T11:23:07.545Z,1008.264
2023-03-15T11:43:07.478Z,1008.368
2023-03-15T12:03:08.506Z,1008.479
2023-03-15T12:23:07.347Z,1008.524
2023-03-15T12:43:07.279Z,1008.694
2023-03-15T13:03:09.574Z,1008.643
2023-03-15T13:23:07.661Z,1008.552
2023-03-15T13:43:07.641Z,1008.567
2023-03-15T14:03:08.652Z,1008.749
2023-03-15T14:23:07.426Z,1008.71
2023-03-15T14:43:07.410Z,1008.827
2023-03-15T15:03:08.279Z,1009.129
2023-03-15T15:23:07.333Z,1009.347
2023-03-15T15:43:07.493Z,1009.416
2023-03-15T16:03:08.646Z,1009.334
2023-03-15T16:23:07.508Z,1009.44
2023-03-15T16:43:07.521Z,1009.631
2023-03-15T17:03:08.567Z,1009.709
2023-03-15T17:23:07.478Z,1009.882
2023-03-15T17:43:07.728Z,1009.999
2023-03-15T18:03:08.699Z,1010.089
2023-03-15T18:23:07.540Z,1010.162
2023-03-15T18:43:07.653Z,1010.307
2023-03-15T19:03:08.548Z,1010.408
2023-03-15T19:23:07.454Z,1010.475
2023-03-15T19:43:07.554Z,1010.633
2023-03-15T20:03:08.419Z,1010.638
2023-03-15T20:23:07.368Z,1010.894
2023-03-15T20:43:07.338Z,1011.089
2023-03-15T21:03:08.611Z,1011.042
2023-03-15T21:23:07.442Z,1011.047
2023-03-15T21:43:07.566Z,1011.052
2023-03-15T22:03:08.689Z,1011.104
2023-03-15T22:23:07.513Z,1011.141
2023-03-15T22:43:07.554Z,1011.104
2023-03-15T23:03:08.819Z,1011.125
2023-03-15T23:23:07.642Z,1011.008
2023-03-15T23:43:07.522Z,1011.167
